createdAt,value
2018-12-07T00:02:23.705Z,8.51
2018-12-07T00:05:27.063Z,8.42
2018-12-07T00:08:30.387Z,8.48
2018-12-07T00:11:33.728Z,8.54
2018-12-07T00:14:37.145Z,8.66
2018-12-07T00:17:40.451Z,8.62
2018-12-07T00:20:43.804Z,8.64
2018-12-07T00:23:47.105Z,8.70
2018-12-07T00:26:50.461Z,8.64
2018-12-07T00:29:53.773Z,8.72
2018-12-07T00:32:58.107Z,8.59
2018-12-07T00:36:01.508Z,8.70
2018-12-07T00:39:07.584Z,8.80
2018-12-07T00:42:10.973Z,8.70
2018-12-07T00:45:14.286Z,8.74
2018-12-07T00:48:18.841Z,8.66
2018-12-07T00:51:22.146Z,8.67
2018-12-07T00:54:26.531Z,8.68
2018-12-07T00:57:29.842Z,8.82
2018-12-07T01:00:33.242Z,8.89
2018-12-07T01:03:36.642Z,8.97
2018-12-07T01:06:40.025Z,8.88
2018-12-07T01:09:43.382Z,8.82
2018-12-07T01:12:46.807Z,8.75
2018-12-07T01:15:50.118Z,8.87
2018-12-07T01:18:53.537Z,8.77
2018-12-07T01:21:56.870Z,8.81
2018-12-07T01:25:00.243Z,8.68
2018-12-07T01:28:03.598Z,8.65
2018-12-07T01:31:06.937Z,8.77
2018-12-07T01:34:10.349Z,8.84
2018-12-07T01:37:13.646Z,8.89
2018-12-07T01:43:35.671Z,8.94
2018-12-07T01:46:39.032Z,8.89
2018-12-07T01:49:42.420Z,8.99
2018-12-07T01:52:45.726Z,8.93
2018-12-07T01:55:49.110Z,8.92
2018-12-07T01:58:52.427Z,8.96
2018-12-07T02:01:55.743Z,8.83
2018-12-07T02:04:59.052Z,8.96
2018-12-07T02:08:02.624Z,8.92
2018-12-07T02:11:06.057Z,8.79
2018-12-07T02:14:09.957Z,8.74
2018-12-07T02:17:13.427Z,8.77
2018-12-07T02:20:17.678Z,8.83
2018-12-07T02:23:21.058Z,8.80
2018-12-07T02:26:24.608Z,8.77
2018-12-07T02:29:28.488Z,8.71
2018-12-07T02:32:32.012Z,8.83
2018-12-07T02:35:35.577Z,8.81
2018-12-07T02:38:38.893Z,8.76
2018-12-07T02:41:42.257Z,8.88
2018-12-07T02:44:45.619Z,8.82
2018-12-07T02:47:49.758Z,8.81
2018-12-07T02:50:53.164Z,8.74
2018-12-07T02:53:57.376Z,8.79
2018-12-07T02:57:00.679Z,8.81
2018-12-07T03:00:05.306Z,8.76
2018-12-07T03:03:08.617Z,8.68
2018-12-07T03:06:12.024Z,8.76
2018-12-07T03:09:15.357Z,8.77
2018-12-07T03:12:18.694Z,8.74
2018-12-07T03:15:22.000Z,8.78
2018-12-07T03:18:33.166Z,8.81
2018-12-07T03:21:36.700Z,8.89
2018-12-07T03:24:40.001Z,8.81
2018-12-07T03:27:43.314Z,8.73
2018-12-07T03:30:46.718Z,8.82
2018-12-07T03:33:50.046Z,8.78
2018-12-07T03:36:53.360Z,8.88
2018-12-07T03:39:56.750Z,8.89
2018-12-07T03:43:00.142Z,9.09
2018-12-07T03:46:03.478Z,9.02
2018-12-07T03:49:06.814Z,8.93
2018-12-07T03:52:10.155Z,8.94
2018-12-07T03:55:13.782Z,9.03
2018-12-07T03:58:17.101Z,9.12
2018-12-07T04:01:20.398Z,9.08
2018-12-07T04:04:24.681Z,9.20
2018-12-07T04:07:28.087Z,9.10
2018-12-07T04:10:31.377Z,9.07
2018-12-07T04:13:34.807Z,9.04
2018-12-07T04:16:38.165Z,9.07
2018-12-07T04:19:41.483Z,9.05
2018-12-07T04:22:45.657Z,9.12
2018-12-07T04:25:48.942Z,9.10
2018-12-07T04:32:31.696Z,9.15
2018-12-07T04:35:35.023Z,9.11
2018-12-07T04:38:39.431Z,9.26
2018-12-07T04:41:42.814Z,9.25
2018-12-07T04:44:46.334Z,9.27
2018-12-07T04:47:50.412Z,9.27
2018-12-07T04:50:53.710Z,9.29
2018-12-07T04:53:57.625Z,9.27
2018-12-07T04:57:01.803Z,9.32
2018-12-07T05:00:07.800Z,9.42
2018-12-07T05:03:11.460Z,9.48
2018-12-07T05:06:14.880Z,9.48
2018-12-07T05:09:18.158Z,9.48
2018-12-07T05:12:21.485Z,9.52
2018-12-07T05:15:24.931Z,9.58
2018-12-07T05:18:28.214Z,9.48
2018-12-07T05:21:31.515Z,9.53
2018-12-07T05:24:35.509Z,9.55
2018-12-07T05:27:38.849Z,9.63
2018-12-07T05:30:42.224Z,9.69
2018-12-07T05:33:45.588Z,9.59
2018-12-07T05:36:50.186Z,9.67
2018-12-07T05:39:53.927Z,9.59
2018-12-07T05:42:57.945Z,9.65
2018-12-07T05:46:01.344Z,9.55
2018-12-07T05:49:04.747Z,9.70
2018-12-07T05:52:08.915Z,9.64
2018-12-07T05:55:12.224Z,9.74
2018-12-07T05:58:15.613Z,9.78
2018-12-07T06:01:19.027Z,9.91
2018-12-07T06:04:22.475Z,9.93
2018-12-07T06:07:25.807Z,9.87
2018-12-07T06:10:29.140Z,9.90
2018-12-07T06:13:32.418Z,9.88
2018-12-07T06:16:35.963Z,10.00
2018-12-07T06:19:39.262Z,9.96
2018-12-07T06:22:42.738Z,9.98
2018-12-07T06:25:46.026Z,9.95
2018-12-07T06:28:49.443Z,10.02
2018-12-07T06:31:52.778Z,9.95
2018-12-07T06:34:56.082Z,9.98
2018-12-07T06:37:59.426Z,9.91
2018-12-07T06:41:02.749Z,10.01
2018-12-07T06:44:06.150Z,9.87
2018-12-07T06:47:09.494Z,9.94
2018-12-07T06:50:13.094Z,9.79
2018-12-07T06:53:16.511Z,9.82
2018-12-07T06:56:19.850Z,9.75
2018-12-07T06:59:23.135Z,9.74
2018-12-07T07:02:26.675Z,9.82
2018-12-07T07:05:30.068Z,9.79
2018-12-07T07:08:33.358Z,9.92
2018-12-07T07:11:36.834Z,9.95
2018-12-07T07:14:40.122Z,9.90
2018-12-07T07:17:43.461Z,9.88
2018-12-07T07:20:46.754Z,9.88
2018-12-07T07:23:50.049Z,9.94
2018-12-07T07:26:53.352Z,9.91
2018-12-07T07:29:57.573Z,10.07
2018-12-07T07:33:00.895Z,10.04
2018-12-07T07:36:04.317Z,9.93
2018-12-07T07:39:08.764Z,9.93
2018-12-07T07:42:12.102Z,9.98
2018-12-07T07:45:15.402Z,9.99
2018-12-07T07:48:18.697Z,10.04
2018-12-07T07:51:22.035Z,10.06
2018-12-07T07:54:25.385Z,10.10
2018-12-07T07:57:28.923Z,10.14
2018-12-07T08:00:33.202Z,10.10
2018-12-07T08:03:36.538Z,10.15
2018-12-07T08:06:39.871Z,10.42
2018-12-07T08:09:43.190Z,10.40
2018-12-07T08:12:46.519Z,10.49
2018-12-07T08:15:49.923Z,10.55
2018-12-07T08:18:53.231Z,10.63
2018-12-07T08:21:56.538Z,10.66
2018-12-07T08:24:59.853Z,10.71
2018-12-07T08:28:03.164Z,10.70
2018-12-07T08:31:06.499Z,10.75
2018-12-07T08:34:10.471Z,10.82
2018-12-07T08:37:13.842Z,10.88
2018-12-07T08:40:17.149Z,10.92
2018-12-07T08:43:20.488Z,11.00
2018-12-07T08:46:23.787Z,11.10
2018-12-07T08:49:32.601Z,11.34
2018-12-07T08:52:35.983Z,11.43
2018-12-07T08:55:40.259Z,11.52
2018-12-07T08:58:43.633Z,11.53
2018-12-07T09:01:46.982Z,11.51
2018-12-07T09:04:50.353Z,11.60
2018-12-07T09:07:53.703Z,11.77
2018-12-07T09:10:57.015Z,11.98
2018-12-07T09:14:00.331Z,12.09
2018-12-07T09:17:03.702Z,12.08
2018-12-07T09:20:07.993Z,12.10
2018-12-07T09:23:11.470Z,12.20
2018-12-07T09:26:14.794Z,12.25
2018-12-07T09:29:18.134Z,12.26
2018-12-07T09:32:21.563Z,12.43
2018-12-07T09:35:25.033Z,12.49
2018-12-07T09:38:28.350Z,12.39
2018-12-07T09:41:31.650Z,12.35
2018-12-07T09:44:34.946Z,12.39
2018-12-07T09:47:38.312Z,12.32
2018-12-07T09:50:41.615Z,12.42
2018-12-07T09:53:45.002Z,12.52
2018-12-07T09:56:48.409Z,12.47
2018-12-07T09:59:52.055Z,12.48
2018-12-07T10:02:55.394Z,12.64
2018-12-07T10:05:58.789Z,12.92
2018-12-07T10:09:02.089Z,13.07
2018-12-07T10:12:05.444Z,13.19
2018-12-07T10:15:08.778Z,13.12
2018-12-07T10:18:12.364Z,13.04
2018-12-07T10:21:15.841Z,12.88
2018-12-07T10:24:19.181Z,12.91
2018-12-07T10:27:22.535Z,13.10
2018-12-07T10:30:25.839Z,13.21
2018-12-07T10:33:29.493Z,13.20
2018-12-07T10:36:32.789Z,13.23
2018-12-07T10:39:36.130Z,13.16
2018-12-07T10:42:39.745Z,13.02
2018-12-07T10:45:43.147Z,12.85
2018-12-07T10:48:46.505Z,12.86
2018-12-07T10:51:49.866Z,12.86
2018-12-07T10:54:53.685Z,12.90
2018-12-07T10:57:57.016Z,12.94
2018-12-07T11:01:05.754Z,12.97
2018-12-07T11:04:14.682Z,13.12
2018-12-07T11:11:00.158Z,13.40
2018-12-07T11:14:09.115Z,13.50
2018-12-07T11:17:18.137Z,13.46
2018-12-07T11:20:27.192Z,13.36
2018-12-07T11:23:36.091Z,13.30
2018-12-07T11:26:44.807Z,13.35
2018-12-07T11:33:45.195Z,13.40
2018-12-07T11:36:48.507Z,13.39
2018-12-07T11:39:51.827Z,13.35
2018-12-07T11:42:55.330Z,13.44
2018-12-07T11:45:58.926Z,13.44
2018-12-07T11:52:13.917Z,13.38
2018-12-07T11:55:17.354Z,13.26
2018-12-07T11:58:20.752Z,13.18
2018-12-07T12:01:24.170Z,13.07
2018-12-07T12:04:27.587Z,13.11
2018-12-07T12:07:32.732Z,13.14
2018-12-07T12:10:36.295Z,13.22
2018-12-07T12:13:39.693Z,13.12
2018-12-07T12:16:43.070Z,13.06
2018-12-07T12:19:46.600Z,12.91
2018-12-07T12:22:49.910Z,12.89
2018-12-07T12:25:53.290Z,13.00
2018-12-07T12:28:56.740Z,13.30
2018-12-07T12:32:00.159Z,13.48
2018-12-07T12:35:05.018Z,13.60
2018-12-07T12:38:08.347Z,13.60
2018-12-07T12:41:11.691Z,13.56
2018-12-07T12:44:15.123Z,13.58
2018-12-07T12:47:18.537Z,13.77
2018-12-07T12:50:27.354Z,13.76
2018-12-07T12:53:30.718Z,13.75
2018-12-07T12:56:34.117Z,13.79
2018-12-07T12:59:37.423Z,13.87
2018-12-07T13:02:40.772Z,13.99
2018-12-07T13:05:44.075Z,13.87
2018-12-07T13:08:47.437Z,13.71
2018-12-07T13:11:50.832Z,13.50
2018-12-07T13:14:54.166Z,13.50
2018-12-07T13:17:57.501Z,13.30
2018-12-07T13:21:00.818Z,13.25
2018-12-07T13:24:04.282Z,13.23
2018-12-07T13:27:07.596Z,13.03
2018-12-07T13:30:11.058Z,12.90
2018-12-07T13:33:14.372Z,12.74
2018-12-07T13:36:18.782Z,12.79
2018-12-07T13:39:22.480Z,12.79
2018-12-07T13:42:26.627Z,12.86
2018-12-07T13:45:30.119Z,12.82
2018-12-07T13:48:33.569Z,12.77
2018-12-07T13:51:37.197Z,12.82
2018-12-07T13:55:01.723Z,12.93
2018-12-07T13:58:05.490Z,12.87
2018-12-07T14:01:09.092Z,12.73
2018-12-07T14:04:12.468Z,12.52
2018-12-07T14:07:15.903Z,12.27
2018-12-07T14:10:19.386Z,12.01
2018-12-07T14:13:22.781Z,11.89
2018-12-07T14:16:26.242Z,11.81
2018-12-07T14:19:29.798Z,11.50
2018-12-07T14:22:33.721Z,11.38
2018-12-07T14:25:37.824Z,11.13
2018-12-07T14:28:41.375Z,11.31
2018-12-07T14:31:44.943Z,11.15
2018-12-07T14:34:49.634Z,11.23
2018-12-07T14:37:53.169Z,11.14
2018-12-07T14:40:56.885Z,10.95
2018-12-07T14:44:00.444Z,10.93
2018-12-07T14:47:04.206Z,11.01
2018-12-07T14:50:08.380Z,11.32
2018-12-07T14:53:11.968Z,11.28
2018-12-07T14:56:15.630Z,11.29
2018-12-07T14:59:19.394Z,11.25
2018-12-07T15:02:22.975Z,11.29
2018-12-07T15:05:26.624Z,11.19
2018-12-07T15:08:30.292Z,11.14
2018-12-07T15:11:33.865Z,11.19
2018-12-07T15:14:37.558Z,11.01
2018-12-07T15:17:41.293Z,10.92
2018-12-07T15:20:44.835Z,10.84
2018-12-07T15:23:48.204Z,10.89
2018-12-07T15:26:51.562Z,10.81
2018-12-07T15:29:55.241Z,10.77
2018-12-07T15:32:58.695Z,10.70
2018-12-07T15:36:02.267Z,10.58
2018-12-07T15:39:07.824Z,10.61
2018-12-07T15:42:11.353Z,10.49
2018-12-07T15:45:14.859Z,10.46
2018-12-07T15:48:19.591Z,10.40
2018-12-07T15:51:23.165Z,10.46
2018-12-07T15:54:26.748Z,10.44
2018-12-07T15:57:30.137Z,10.59
2018-12-07T16:00:33.627Z,10.51
2018-12-07T16:03:37.142Z,10.66
2018-12-07T16:06:40.646Z,10.44
2018-12-07T16:09:44.200Z,10.46
2018-12-07T16:12:47.561Z,10.59
2018-12-07T16:15:51.042Z,10.48
2018-12-07T16:18:54.531Z,10.45
2018-12-07T16:21:57.886Z,10.37
2018-12-07T16:25:01.284Z,10.27
2018-12-07T16:28:04.769Z,10.08
2018-12-07T16:31:08.560Z,9.92
2018-12-07T16:34:12.149Z,9.83
2018-12-07T16:37:15.772Z,9.87
2018-12-07T16:40:19.453Z,9.76
2018-12-07T16:43:23.075Z,9.63
2018-12-07T16:46:26.805Z,9.44
2018-12-07T16:49:30.131Z,9.49
2018-12-07T16:52:33.768Z,9.15
2018-12-07T16:55:43.272Z,8.96
2018-12-07T16:58:46.992Z,8.98
2018-12-07T17:01:50.329Z,8.77
2018-12-07T17:04:53.859Z,8.48
2018-12-07T17:07:57.517Z,8.37
2018-12-07T17:11:01.094Z,8.51
2018-12-07T17:14:04.613Z,8.54
2018-12-07T17:17:08.083Z,8.46
2018-12-07T17:20:11.611Z,8.26
2018-12-07T17:23:15.137Z,7.88
2018-12-07T17:26:18.790Z,7.52
2018-12-07T17:29:22.220Z,7.50
2018-12-07T17:32:25.976Z,7.29
2018-12-07T17:35:30.066Z,7.43
2018-12-07T17:38:33.659Z,7.68
2018-12-07T17:41:37.221Z,7.38
2018-12-07T17:44:41.000Z,7.27
2018-12-07T17:47:44.793Z,6.97
2018-12-07T17:50:48.256Z,6.85
2018-12-07T17:53:51.843Z,6.63
2018-12-07T17:56:55.336Z,6.66
2018-12-07T17:59:59.030Z,6.49
2018-12-07T18:03:02.428Z,6.53
2018-12-07T18:06:05.867Z,6.47
2018-12-07T18:09:09.692Z,6.42
2018-12-07T18:12:13.164Z,6.54
2018-12-07T18:15:16.695Z,6.69
2018-12-07T18:18:20.355Z,6.81
2018-12-07T18:21:24.065Z,6.63
2018-12-07T18:24:27.515Z,6.52
2018-12-07T18:27:31.045Z,6.47
2018-12-07T18:30:34.421Z,6.42
2018-12-07T18:33:38.101Z,6.46
2018-12-07T18:36:41.714Z,6.58
2018-12-07T18:39:45.149Z,6.68
2018-12-07T18:42:48.622Z,6.88
2018-12-07T18:45:52.063Z,7.35
2018-12-07T18:48:55.819Z,7.52
2018-12-07T18:51:59.313Z,7.52
2018-12-07T18:55:02.911Z,7.61
2018-12-07T18:58:06.523Z,7.73
2018-12-07T19:01:10.167Z,7.57
2018-12-07T19:04:13.685Z,7.54
2018-12-07T19:07:17.091Z,7.58
2018-12-07T19:10:20.551Z,7.46
2018-12-07T19:13:24.399Z,7.64
2018-12-07T19:16:27.846Z,7.81
2018-12-07T19:19:31.291Z,8.00
2018-12-07T19:22:34.970Z,8.02
2018-12-07T19:25:38.369Z,8.09
2018-12-07T19:31:59.098Z,8.39
2018-12-07T19:35:02.613Z,8.42
2018-12-07T19:38:06.022Z,8.55
2018-12-07T19:41:09.564Z,8.67
2018-12-07T19:44:13.190Z,8.65
2018-12-07T19:47:16.708Z,8.61
2018-12-07T19:50:20.495Z,8.61
2018-12-07T19:53:24.005Z,8.77
2018-12-07T19:56:27.375Z,8.70
2018-12-07T19:59:30.786Z,8.87
2018-12-07T20:02:34.500Z,8.71
2018-12-07T20:05:38.184Z,8.79
2018-12-07T20:08:41.552Z,8.82
2018-12-07T20:11:45.091Z,8.87
2018-12-07T20:14:48.611Z,8.81
2018-12-07T20:17:51.898Z,8.99
2018-12-07T20:20:55.239Z,8.90
2018-12-07T20:23:58.621Z,8.87
2018-12-07T20:27:02.274Z,8.98
2018-12-07T20:30:07.667Z,9.14
2018-12-07T20:33:11.431Z,9.06
2018-12-07T20:36:14.916Z,9.06
2018-12-07T20:39:18.474Z,9.06
2018-12-07T20:42:29.967Z,9.16
2018-12-07T20:45:33.428Z,9.06
2018-12-07T20:48:36.880Z,9.03
2018-12-07T20:51:40.265Z,9.06
2018-12-07T20:54:43.588Z,9.12
2018-12-07T20:57:47.064Z,9.18
2018-12-07T21:00:59.065Z,9.13
2018-12-07T21:07:51.361Z,9.14
2018-12-07T21:14:22.506Z,9.10
2018-12-07T21:17:26.132Z,9.19
2018-12-07T21:20:30.000Z,9.32
2018-12-07T21:23:33.648Z,9.33
2018-12-07T21:26:37.332Z,9.37
2018-12-07T21:29:40.826Z,9.46
2018-12-07T21:32:44.418Z,9.48
2018-12-07T21:35:57.906Z,9.61
2018-12-07T21:39:01.210Z,9.61
2018-12-07T21:42:04.570Z,9.66
2018-12-07T21:45:07.933Z,9.72
2018-12-07T21:48:22.201Z,9.79
2018-12-07T21:51:31.411Z,9.74
2018-12-07T21:54:34.984Z,9.84
2018-12-07T21:57:38.833Z,9.95
2018-12-07T22:00:42.398Z,9.88
2018-12-07T22:03:45.778Z,9.90
2018-12-07T22:06:50.334Z,9.92
2018-12-07T22:09:53.790Z,9.86
2018-12-07T22:12:57.254Z,9.95
2018-12-07T22:16:00.641Z,10.06
2018-12-07T22:19:04.191Z,10.09
2018-12-07T22:22:07.617Z,10.09
2018-12-07T22:25:11.229Z,10.01
2018-12-07T22:28:14.708Z,10.06
2018-12-07T22:31:18.344Z,10.12
2018-12-07T22:34:21.851Z,10.25
2018-12-07T22:37:25.850Z,10.23
2018-12-07T22:40:29.348Z,10.28
2018-12-07T22:43:32.852Z,10.35
2018-12-07T22:46:36.703Z,10.27
2018-12-07T22:49:40.212Z,10.24
2018-12-07T22:52:43.514Z,10.06
2018-12-07T22:55:48.226Z,9.75
2018-12-07T22:58:51.562Z,9.49
2018-12-07T23:01:54.992Z,9.23
2018-12-07T23:04:58.323Z,9.09
2018-12-07T23:08:01.655Z,9.01
2018-12-07T23:11:05.099Z,8.98
2018-12-07T23:14:08.437Z,8.93
2018-12-07T23:17:11.776Z,8.91
2018-12-07T23:20:15.230Z,8.83
2018-12-07T23:23:18.530Z,8.83
2018-12-07T23:26:22.091Z,8.88
2018-12-07T23:29:25.639Z,8.77
2018-12-07T23:32:29.026Z,8.73
2018-12-07T23:35:33.278Z,8.56
2018-12-07T23:38:36.606Z,8.48
2018-12-07T23:41:39.970Z,8.41
2018-12-07T23:44:43.278Z,8.25
2018-12-07T23:47:46.587Z,8.12
2018-12-07T23:50:49.938Z,7.87
2018-12-07T23:53:53.238Z,7.67
2018-12-07T23:56:56.640Z,7.58
